Map Display - EGGP to EGKK
(last flight recorded 27-05-2020, 21:48 - Andrew Siddall)

Aircraft Weights    Units : Maximums
Passengers :   36  
Cargo : kg 3,765 kg
Suggested Fuel Load : kg 1,742 kg
 
     
 
Dry Operating : 7,350 kg    
Total Payload : 8,825 kg 2,563 kg
 
Take Off : 16,915 kg 11,999 kg
 
Expected Landing : 16,540 kg 12,020 kg

Stuart Sutton-Young,  SH36 ,  G-BLZT,  In Hangar.

Route Distance Previous
Flights
Average
Duration
Average
Fuel Flow
Average
Fuel Use
EGGP - Liverpool
EGKK - Gatwick, London
164 nm 1 01:12 304 kg/h 375 kg

Current weather :-
2020/05/28 06:09
TAF EGGP 280457Z 2806/2906 12006KT CAVOK PROB30
TEMPO 2815/2820 28010KT
2020/05/28 06:09
TAF EGKK 280456Z 2806/2912 08007KT 9999 FEW045 PROB30
TEMPO 2806/2807 BKN010

Back to Virtual Airline